createdAt,value
2023-04-18T00:01:55.702Z,11.50
2023-04-18T00:04:23.829Z,13.70
2023-04-18T00:06:52.055Z,14.20
2023-04-18T00:09:20.053Z,16.30
2023-04-18T00:11:48.504Z,13.00
2023-04-18T00:14:16.599Z,15.50
2023-04-18T00:16:44.599Z,13.70
2023-04-18T00:19:12.643Z,16.40
2023-04-18T00:21:44.706Z,11.80
2023-04-18T00:24:13.136Z,15.60
2023-04-18T00:26:41.468Z,16.30
2023-04-18T00:29:09.284Z,15.10
2023-04-18T00:31:37.707Z,12.10
2023-04-18T00:34:05.621Z,17.40
2023-04-18T00:36:33.620Z,15.40
2023-04-18T00:39:01.633Z,16.20
2023-04-18T00:41:30.428Z,15.00
2023-04-18T00:43:58.348Z,16.80
2023-04-18T00:46:26.269Z,16.30
2023-04-18T00:48:54.503Z,16.50
2023-04-18T00:51:22.744Z,11.70
2023-04-18T00:53:51.330Z,16.40
2023-04-18T00:56:19.940Z,14.20
2023-04-18T00:58:47.784Z,12.20
2023-04-18T01:01:16.484Z,13.90
2023-04-18T01:03:45.581Z,9.30
2023-04-18T01:06:16.540Z,8.70
2023-04-18T01:08:45.898Z,15.60
2023-04-18T01:11:13.825Z,10.70
2023-04-18T01:13:42.180Z,9.00
2023-04-18T01:16:10.047Z,16.20
2023-04-18T01:18:40.242Z,15.90
2023-04-18T01:21:08.621Z,12.20
2023-04-18T01:23:36.738Z,11.80
2023-04-18T01:26:04.749Z,10.30
2023-04-18T01:28:37.045Z,12.50
2023-04-18T01:31:05.399Z,8.10
2023-04-18T01:33:33.505Z,13.80
2023-04-18T01:36:01.431Z,10.70
2023-04-18T01:38:33.126Z,9.50
2023-04-18T01:41:02.586Z,14.40
2023-04-18T01:43:30.808Z,13.30
2023-04-18T01:45:59.010Z,15.20
2023-04-18T01:48:27.016Z,15.20
2023-04-18T01:50:55.143Z,13.10
2023-04-18T01:53:24.863Z,14.10
2023-04-18T01:55:53.082Z,13.80
2023-04-18T01:58:23.679Z,13.00
2023-04-18T02:00:52.997Z,14.20
2023-04-18T02:03:22.579Z,8.40
2023-04-18T02:05:52.233Z,14.30
2023-04-18T02:08:20.188Z,15.80
2023-04-18T02:10:48.019Z,10.00
2023-04-18T02:13:15.979Z,9.60
2023-04-18T02:15:45.935Z,11.60
2023-04-18T02:18:17.476Z,12.80
2023-04-18T02:20:45.613Z,14.80
2023-04-18T02:23:13.510Z,13.60
2023-04-18T02:25:41.459Z,14.20
2023-04-18T02:28:10.677Z,13.00
2023-04-18T02:30:38.560Z,5.90
2023-04-18T02:33:06.571Z,15.40
2023-04-18T02:35:35.606Z,14.70
2023-04-18T02:38:03.548Z,14.10
2023-04-18T02:40:31.517Z,14.10
2023-04-18T02:43:02.108Z,10.30
2023-04-18T02:45:30.170Z,13.70
2023-04-18T02:47:59.605Z,9.60
2023-04-18T02:50:29.131Z,15.60
2023-04-18T02:52:57.341Z,13.20
2023-04-18T02:55:30.164Z,15.70
2023-04-18T02:57:59.623Z,13.20
2023-04-18T03:00:45.833Z,14.30
2023-04-18T03:03:36.774Z,15.40
2023-04-18T03:06:25.278Z,16.30
2023-04-18T03:08:55.092Z,15.30
2023-04-18T03:11:24.918Z,15.80
2023-04-18T03:13:54.105Z,9.90
2023-04-18T03:16:22.772Z,6.30
2023-04-18T03:18:50.814Z,12.90
2023-04-18T03:21:19.529Z,15.50
2023-04-18T03:23:47.630Z,15.80
2023-04-18T03:26:16.071Z,15.60
2023-04-18T03:28:51.979Z,15.80
2023-04-18T03:31:20.612Z,16.20
2023-04-18T03:33:49.143Z,16.60
2023-04-18T03:36:18.145Z,18.00
2023-04-18T03:38:46.804Z,13.50
2023-04-18T03:41:15.845Z,17.70
2023-04-18T03:43:44.178Z,17.60
2023-04-18T03:46:12.882Z,15.90
2023-04-18T03:48:40.933Z,15.90
2023-04-18T03:51:10.420Z,18.70
2023-04-18T03:53:39.105Z,15.10
2023-04-18T03:56:07.220Z,12.70
2023-04-18T03:58:48.960Z,15.30
2023-04-18T04:05:25.715Z,13.30
2023-04-18T04:07:54.168Z,7.40
2023-04-18T04:10:22.089Z,17.20
2023-04-18T04:12:50.323Z,14.00
2023-04-18T04:15:18.962Z,19.10
2023-04-18T04:17:51.840Z,10.50
2023-04-18T04:20:25.030Z,19.80
2023-04-18T04:23:00.015Z,18.20
2023-04-18T04:25:31.130Z,13.80
2023-04-18T04:28:01.892Z,18.30
2023-04-18T04:34:38.190Z,18.70
2023-04-18T04:37:08.308Z,12.70
2023-04-18T04:39:41.814Z,19.50
2023-04-18T04:42:25.387Z,15.20
2023-04-18T04:44:58.688Z,18.00
2023-04-18T04:47:26.842Z,17.30
2023-04-18T04:49:55.113Z,16.10
2023-04-18T04:52:23.083Z,15.10
2023-04-18T04:54:51.659Z,19.10
2023-04-18T04:57:20.831Z,14.80
2023-04-18T04:59:48.874Z,10.20
2023-04-18T05:02:17.253Z,17.30
2023-04-18T05:04:45.421Z,17.40
2023-04-18T05:07:13.414Z,17.90
2023-04-18T05:09:41.229Z,17.80
2023-04-18T05:12:09.194Z,16.50
2023-04-18T05:14:37.164Z,15.00
2023-04-18T05:17:05.402Z,18.60
2023-04-18T05:19:33.328Z,17.70
2023-04-18T05:22:01.294Z,13.80
2023-04-18T05:24:29.770Z,17.60
2023-04-18T05:26:57.845Z,15.60
2023-04-18T05:29:25.925Z,7.60
2023-04-18T05:31:54.399Z,9.90
2023-04-18T05:34:22.314Z,15.20
2023-04-18T05:36:52.090Z,16.00
2023-04-18T05:39:20.149Z,12.90
2023-04-18T05:41:48.196Z,11.10
2023-04-18T05:44:17.360Z,16.80
2023-04-18T05:46:45.884Z,14.40
2023-04-18T05:49:13.973Z,16.30
2023-04-18T05:51:41.863Z,16.70
2023-04-18T05:54:10.041Z,16.20
2023-04-18T05:56:39.025Z,14.50
2023-04-18T05:59:06.891Z,15.40
2023-04-18T06:01:34.815Z,13.50
2023-04-18T06:04:02.954Z,15.20
2023-04-18T06:06:31.595Z,16.70
2023-04-18T06:08:59.426Z,12.40
2023-04-18T06:11:28.502Z,14.10
2023-04-18T06:13:56.387Z,13.00
2023-04-18T06:16:24.313Z,14.70
2023-04-18T06:18:52.136Z,9.20
2023-04-18T06:21:20.943Z,17.40
2023-04-18T06:23:48.861Z,17.80
2023-04-18T06:26:17.366Z,9.00
2023-04-18T06:28:45.443Z,14.60
2023-04-18T06:31:13.410Z,14.20
2023-04-18T06:33:41.387Z,15.20
2023-04-18T06:36:09.909Z,16.90
2023-04-18T06:38:37.846Z,14.90
2023-04-18T06:41:05.842Z,15.90
2023-04-18T06:43:36.308Z,13.90
2023-04-18T06:46:05.432Z,14.20
2023-04-18T06:48:33.469Z,12.60
2023-04-18T06:51:01.561Z,15.20
2023-04-18T06:53:29.622Z,15.20
2023-04-18T06:55:57.610Z,15.60
2023-04-18T06:58:25.692Z,13.60
2023-04-18T07:00:54.208Z,14.70
2023-04-18T07:03:22.249Z,14.10
2023-04-18T07:05:50.795Z,8.70
2023-04-18T07:08:18.897Z,16.90
2023-04-18T07:10:46.870Z,15.10
2023-04-18T07:13:14.825Z,11.90
2023-04-18T07:15:42.945Z,13.50
2023-04-18T07:18:11.032Z,15.90
2023-04-18T07:20:39.087Z,14.30
2023-04-18T07:23:07.550Z,15.90
2023-04-18T07:25:35.985Z,14.30
2023-04-18T07:28:04.540Z,14.70
2023-04-18T07:30:32.516Z,11.40
2023-04-18T07:33:03.242Z,14.70
2023-04-18T07:35:31.500Z,13.20
2023-04-18T07:37:59.412Z,14.00
2023-04-18T07:40:27.470Z,12.40
2023-04-18T07:42:55.464Z,11.70
2023-04-18T07:45:23.434Z,12.30
2023-04-18T07:47:51.788Z,15.60
2023-04-18T07:50:19.837Z,14.90
2023-04-18T07:52:48.254Z,12.60
2023-04-18T07:55:16.444Z,12.70
2023-04-18T07:57:50.202Z,11.30
2023-04-18T08:00:18.725Z,13.20
2023-04-18T08:02:46.762Z,15.40
2023-04-18T08:05:14.840Z,13.10
2023-04-18T08:07:43.381Z,14.00
2023-04-18T08:10:11.705Z,12.40
2023-04-18T08:12:39.796Z,15.30
2023-04-18T08:15:08.600Z,12.90
2023-04-18T08:17:37.730Z,14.60
2023-04-18T08:20:06.471Z,13.10
2023-04-18T08:22:34.404Z,14.40
2023-04-18T08:25:05.595Z,15.90
2023-04-18T08:27:33.874Z,14.00
2023-04-18T08:30:04.160Z,12.80
2023-04-18T08:32:32.294Z,13.50
2023-04-18T08:35:00.895Z,14.40
2023-04-18T08:37:29.280Z,14.00
2023-04-18T08:39:57.316Z,13.80
2023-04-18T08:42:25.533Z,12.90
2023-04-18T08:44:54.085Z,14.20
2023-04-18T08:47:22.249Z,12.90
2023-04-18T08:49:52.209Z,13.50
2023-04-18T08:52:21.597Z,13.60
2023-04-18T08:54:51.041Z,13.30
2023-04-18T08:57:28.547Z,15.10
2023-04-18T09:00:00.687Z,13.30
2023-04-18T09:02:42.759Z,13.10
2023-04-18T09:05:21.650Z,12.90
2023-04-18T09:07:51.477Z,10.60
2023-04-18T09:10:30.955Z,12.60
2023-04-18T09:13:01.083Z,13.20
2023-04-18T09:15:30.355Z,13.50
2023-04-18T09:18:01.656Z,13.60
2023-04-18T09:20:41.182Z,12.10
2023-04-18T09:23:21.715Z,13.40
2023-04-18T09:25:52.159Z,8.10
2023-04-18T09:28:28.055Z,13.20
2023-04-18T09:30:58.222Z,12.80
2023-04-18T09:33:33.881Z,12.20
2023-04-18T09:36:21.266Z,12.20
2023-04-18T09:38:52.524Z,12.40
2023-04-18T09:41:23.170Z,13.20
2023-04-18T09:44:12.382Z,12.60
2023-04-18T09:46:44.466Z,12.70
2023-04-18T09:49:14.778Z,11.90
2023-04-18T09:51:46.843Z,12.00
2023-04-18T09:54:16.458Z,11.30
2023-04-18T09:56:45.959Z,12.30
2023-04-18T09:59:18.652Z,11.50
2023-04-18T10:01:49.741Z,11.20
2023-04-18T10:04:19.187Z,10.70
2023-04-18T10:06:47.376Z,9.90
2023-04-18T10:09:16.538Z,11.10
2023-04-18T10:11:46.974Z,11.40
2023-04-18T10:14:16.749Z,10.70
2023-04-18T10:16:45.812Z,9.40
2023-04-18T10:19:25.430Z,7.60
2023-04-18T11:04:36.309Z,6.30
2023-04-18T13:42:40.556Z,6.20
2023-04-18T13:45:08.835Z,7.70
2023-04-18T13:47:37.550Z,8.10
2023-04-18T13:50:06.178Z,7.90
2023-04-18T13:52:34.129Z,8.20
2023-04-18T13:55:02.093Z,7.70
2023-04-18T13:57:32.259Z,8.00
2023-04-18T14:00:00.380Z,6.70
2023-04-18T14:02:28.359Z,7.50
2023-04-18T14:05:16.503Z,7.60
2023-04-18T14:07:44.987Z,7.10
2023-04-18T14:10:12.935Z,6.80
2023-04-18T14:12:41.018Z,7.60
2023-04-18T14:15:09.779Z,6.60
2023-04-18T14:17:37.786Z,7.40
2023-04-18T14:20:06.653Z,5.60
2023-04-18T14:22:34.868Z,6.90
2023-04-18T14:25:02.864Z,6.60
2023-04-18T14:27:31.489Z,6.50
2023-04-18T14:29:59.850Z,7.10
2023-04-18T14:32:27.794Z,6.60
2023-04-18T14:34:55.721Z,5.90
2023-04-18T14:37:23.815Z,5.60
2023-04-18T14:39:51.809Z,4.80
2023-04-18T14:42:19.701Z,4.20
2023-04-18T14:44:47.603Z,4.80
2023-04-18T14:47:15.902Z,6.90
2023-04-18T14:49:43.754Z,6.10
2023-04-18T14:52:11.730Z,5.70
2023-04-18T14:54:39.642Z,5.60
2023-04-18T14:57:08.468Z,5.60
2023-04-18T14:59:36.916Z,5.60
2023-04-18T15:02:05.011Z,5.10
2023-04-18T15:04:33.210Z,2.70
2023-04-18T15:07:01.855Z,5.20
2023-04-18T15:09:29.819Z,5.10
2023-04-18T15:11:58.379Z,4.70
2023-04-18T15:14:26.310Z,5.20
2023-04-18T15:16:54.253Z,4.90
2023-04-18T15:19:22.265Z,4.80
2023-04-18T15:21:51.559Z,5.40
2023-04-18T15:24:19.510Z,4.70
2023-04-18T15:26:47.933Z,5.70
2023-04-18T15:29:15.918Z,4.80
2023-04-18T15:31:44.014Z,4.60
2023-04-18T15:34:12.112Z,4.80
2023-04-18T15:36:40.183Z,4.20
2023-04-18T15:39:09.198Z,4.00
2023-04-18T15:41:37.558Z,4.90
2023-04-18T15:44:11.370Z,4.50
2023-04-18T15:46:39.362Z,4.50
2023-04-18T15:49:07.265Z,4.30
2023-04-18T15:51:35.047Z,4.40
2023-04-18T15:54:03.104Z,3.80
2023-04-18T15:56:33.659Z,3.00
2023-04-18T15:59:04.417Z,3.70
2023-04-18T16:01:33.656Z,3.50
2023-04-18T16:04:01.741Z,3.80
2023-04-18T16:06:31.435Z,2.70
2023-04-18T16:08:59.441Z,3.70
2023-04-18T16:11:27.669Z,3.20
2023-04-18T16:14:25.958Z,2.70
2023-04-18T16:16:54.986Z,3.30
2023-04-18T16:19:23.166Z,2.80
2023-04-18T16:21:51.301Z,3.00
2023-04-18T16:24:19.162Z,3.20
2023-04-18T16:26:47.024Z,3.00
2023-04-18T16:29:15.735Z,3.10
2023-04-18T16:31:43.768Z,3.40
2023-04-18T16:34:11.749Z,3.80
2023-04-18T16:36:40.208Z,3.50
2023-04-18T16:39:08.245Z,3.50
2023-04-18T16:41:36.254Z,3.40
2023-04-18T16:44:04.377Z,4.10
2023-04-18T16:46:32.398Z,3.70
2023-04-18T16:49:01.623Z,3.70
2023-04-18T16:51:30.977Z,3.80
2023-04-18T16:53:59.208Z,3.90
2023-04-18T16:56:27.026Z,4.00
2023-04-18T16:58:54.923Z,3.70
2023-04-18T17:01:23.251Z,3.60
2023-04-18T17:03:51.631Z,3.80
2023-04-18T17:06:19.603Z,3.70
2023-04-18T17:08:48.927Z,3.60
2023-04-18T17:11:16.887Z,4.50
2023-04-18T17:13:44.957Z,3.90
2023-04-18T17:16:12.896Z,4.30
2023-04-18T17:18:41.776Z,4.00
2023-04-18T17:21:12.521Z,4.90
2023-04-18T17:23:42.529Z,4.30
2023-04-18T17:26:10.568Z,4.60
2023-04-18T17:28:38.589Z,4.30
2023-04-18T17:31:06.639Z,4.20
2023-04-18T17:33:34.606Z,4.30
2023-04-18T17:36:04.327Z,4.10
2023-04-18T17:38:34.034Z,4.10
2023-04-18T17:41:04.565Z,4.80
2023-04-18T17:43:32.794Z,5.00
2023-04-18T17:46:01.409Z,4.70
2023-04-18T17:48:29.670Z,4.60
2023-04-18T17:50:57.637Z,4.80
2023-04-18T17:53:25.630Z,4.80
2023-04-18T17:55:55.375Z,4.80
2023-04-18T17:58:23.347Z,5.10
2023-04-18T18:00:51.865Z,5.70
2023-04-18T18:03:20.361Z,5.20
2023-04-18T18:05:49.591Z,5.80
2023-04-18T18:08:17.459Z,5.20
2023-04-18T18:10:47.076Z,5.30
2023-04-18T18:13:15.725Z,4.60
2023-04-18T18:15:43.708Z,4.70
2023-04-18T18:18:11.717Z,5.30
2023-04-18T18:20:42.829Z,4.70
2023-04-18T18:23:11.093Z,5.80
2023-04-18T18:25:39.142Z,5.90
2023-04-18T18:28:07.272Z,6.50
2023-04-18T18:30:37.362Z,6.90
2023-04-18T18:33:05.728Z,7.00
2023-04-18T18:35:33.561Z,5.90
2023-04-18T18:38:01.502Z,6.90
2023-04-18T18:40:29.798Z,6.90
2023-04-18T18:42:58.214Z,6.40
2023-04-18T18:45:26.486Z,6.40
2023-04-18T18:47:54.888Z,6.80
2023-04-18T18:50:23.395Z,6.80
2023-04-18T18:52:51.379Z,6.80
2023-04-18T18:55:19.353Z,8.20
2023-04-18T18:57:48.235Z,7.60
2023-04-18T19:04:56.260Z,7.10
2023-04-18T19:07:23.013Z,7.90
2023-04-18T19:09:49.604Z,6.40
2023-04-18T19:12:15.964Z,6.60
2023-04-18T19:14:42.533Z,6.60
2023-04-18T19:17:09.051Z,6.30
2023-04-18T19:19:36.168Z,6.70
2023-04-18T19:22:02.702Z,6.90
2023-04-18T19:24:31.056Z,7.40
2023-04-18T19:26:58.945Z,7.80
2023-04-18T19:29:26.050Z,10.30
2023-04-18T19:31:52.840Z,9.60
2023-04-18T19:34:21.243Z,8.50
2023-04-18T19:36:47.860Z,8.00
2023-04-18T19:39:14.547Z,8.00
2023-04-18T19:41:41.176Z,8.70
2023-04-18T19:44:08.015Z,9.10
2023-04-18T19:46:34.546Z,8.80
2023-04-18T19:49:00.964Z,7.60
2023-04-18T19:51:27.505Z,7.30
2023-04-18T19:53:54.885Z,6.70
2023-04-18T19:56:21.981Z,6.70
2023-04-18T19:58:48.548Z,6.30
2023-04-18T20:01:17.231Z,6.20
2023-04-18T20:03:43.953Z,6.30
2023-04-18T20:06:10.741Z,6.70
2023-04-18T20:08:40.708Z,6.50
2023-04-18T20:11:08.847Z,7.70
2023-04-18T20:13:36.824Z,7.20
2023-04-18T20:16:04.599Z,7.30
2023-04-18T20:18:31.495Z,7.50
2023-04-18T20:20:58.023Z,7.10
2023-04-18T20:23:24.984Z,7.60
2023-04-18T20:25:51.552Z,6.40
2023-04-18T20:28:17.924Z,7.20
2023-04-18T20:30:44.975Z,6.70
2023-04-18T20:33:11.464Z,6.70
2023-04-18T20:35:38.286Z,6.40
2023-04-18T20:38:06.603Z,6.00
2023-04-18T20:40:33.606Z,5.60
2023-04-18T20:43:02.437Z,5.60
2023-04-18T20:45:29.530Z,6.10
2023-04-18T20:47:56.171Z,4.20
2023-04-18T20:50:22.588Z,5.80
2023-04-18T20:52:48.990Z,6.40
2023-04-18T20:55:16.307Z,5.30
2023-04-18T20:57:43.107Z,6.20
2023-04-18T21:00:10.391Z,6.50
2023-04-18T21:02:36.995Z,6.50
2023-04-18T21:05:04.141Z,7.30
2023-04-18T21:07:31.549Z,6.60
2023-04-18T21:09:58.190Z,6.70
2023-04-18T21:12:24.629Z,6.40
2023-04-18T21:14:51.177Z,6.40
2023-04-18T21:17:18.260Z,6.60
2023-04-18T21:19:48.333Z,7.10
2023-04-18T21:22:15.809Z,7.30
2023-04-18T21:24:43.387Z,6.90
2023-04-18T21:27:10.081Z,7.00
2023-04-18T21:29:38.214Z,7.00
2023-04-18T21:32:05.250Z,6.60
2023-04-18T21:34:31.773Z,7.10
2023-04-18T21:36:58.763Z,6.90
2023-04-18T21:39:26.414Z,7.40
2023-04-18T21:41:52.928Z,7.80
2023-04-18T21:44:19.562Z,7.80
2023-04-18T21:46:45.984Z,7.90
2023-04-18T21:49:12.779Z,8.20
2023-04-18T21:51:39.274Z,8.00
2023-04-18T21:54:07.152Z,8.20
2023-04-18T21:56:33.697Z,7.80
2023-04-18T21:59:00.247Z,8.40
2023-04-18T22:01:26.843Z,7.90
2023-04-18T22:03:54.314Z,7.90
2023-04-18T22:06:22.376Z,8.10
2023-04-18T22:08:49.292Z,7.30
2023-04-18T22:11:15.686Z,7.90
2023-04-18T22:13:44.211Z,7.60
2023-04-18T22:16:11.167Z,7.00
2023-04-18T22:18:38.181Z,8.10
2023-04-18T22:21:05.380Z,8.10
2023-04-18T22:23:32.704Z,7.20
2023-04-18T22:25:59.281Z,7.40
2023-04-18T22:28:27.270Z,7.20
2023-04-18T22:30:53.765Z,7.70
2023-04-18T22:33:20.714Z,7.60
2023-04-18T22:35:48.005Z,7.60
2023-04-18T22:38:14.649Z,7.10
2023-04-18T22:40:41.219Z,7.90
2023-04-18T22:43:07.637Z,7.80
2023-04-18T22:45:34.270Z,7.20
2023-04-18T22:48:01.078Z,8.00
2023-04-18T22:50:29.440Z,7.70
2023-04-18T22:52:56.657Z,7.90
2023-04-18T22:55:23.356Z,7.30
2023-04-18T22:57:49.971Z,7.30
2023-04-18T23:00:16.539Z,8.00
2023-04-18T23:02:42.975Z,8.00
2023-04-18T23:05:10.133Z,7.30
2023-04-18T23:07:36.621Z,7.60
2023-04-18T23:10:05.752Z,7.10
2023-04-18T23:12:32.269Z,6.20
2023-04-18T23:14:58.710Z,7.40
2023-04-18T23:17:25.207Z,7.20
2023-04-18T23:19:51.675Z,7.10
2023-04-18T23:22:18.203Z,6.90
2023-04-18T23:24:44.739Z,7.30
2023-04-18T23:27:11.073Z,8.40
2023-04-18T23:29:38.618Z,6.70
2023-04-18T23:32:05.815Z,7.60
2023-04-18T23:34:32.269Z,7.70
2023-04-18T23:36:59.893Z,6.70
2023-04-18T23:39:26.996Z,7.20
2023-04-18T23:41:53.646Z,6.50
2023-04-18T23:44:20.661Z,6.20
2023-04-18T23:46:47.331Z,7.50
2023-04-18T23:49:14.420Z,7.10
2023-04-18T23:51:40.867Z,7.00
2023-04-18T23:54:07.401Z,7.50
2023-04-18T23:56:34.159Z,7.50
2023-04-18T23:59:00.512Z,7.30
